createdAt,value
2022-10-26T00:02:43.380Z,16.80
2022-10-26T00:08:46.782Z,16.80
2022-10-26T00:14:48.902Z,16.80
2022-10-26T00:20:51.322Z,16.80
2022-10-26T00:26:53.475Z,16.70
2022-10-26T00:32:55.718Z,16.70
2022-10-26T00:38:58.110Z,16.50
2022-10-26T00:45:19.836Z,16.30
2022-10-26T00:51:33.109Z,16.20
2022-10-26T01:04:00.610Z,16.10
2022-10-26T01:10:03.073Z,16.00
2022-10-26T01:16:30.058Z,15.90
2022-10-26T01:22:42.285Z,15.90
2022-10-26T01:29:01.758Z,15.90
2022-10-26T01:35:11.082Z,16.00
2022-10-26T01:41:29.900Z,16.10
2022-10-26T01:47:34.256Z,16.20
2022-10-26T01:53:36.660Z,16.20
2022-10-26T01:59:38.730Z,16.20
2022-10-26T02:06:03.963Z,16.30
2022-10-26T02:12:16.117Z,16.30
2022-10-26T02:18:36.763Z,16.30
2022-10-26T02:24:40.583Z,16.30
2022-10-26T02:30:44.212Z,16.40
2022-10-26T02:36:49.263Z,16.40
2022-10-26T02:42:53.143Z,16.50
2022-10-26T02:48:56.578Z,16.50
2022-10-26T02:55:07.915Z,16.40
2022-10-26T03:01:09.969Z,16.30
2022-10-26T03:07:12.368Z,16.20
2022-10-26T03:13:14.819Z,16.30
2022-10-26T03:19:17.166Z,16.30
2022-10-26T03:25:19.426Z,16.40
2022-10-26T03:31:21.702Z,16.40
2022-10-26T03:37:24.366Z,16.40
2022-10-26T03:43:26.722Z,16.40
2022-10-26T03:49:28.767Z,16.30
2022-10-26T03:55:31.001Z,16.20
2022-10-26T04:01:33.684Z,16.10
2022-10-26T04:07:36.387Z,15.90
2022-10-26T04:13:38.591Z,15.80
2022-10-26T04:19:40.564Z,15.70
2022-10-26T04:25:43.681Z,15.70
2022-10-26T04:31:45.724Z,15.50
2022-10-26T04:37:48.070Z,15.40
2022-10-26T04:43:50.572Z,15.40
2022-10-26T04:49:52.601Z,15.20
2022-10-26T04:55:58.665Z,15.10
2022-10-26T05:02:00.775Z,15.10
2022-10-26T05:08:04.109Z,15.20
2022-10-26T05:14:06.114Z,15.40
2022-10-26T05:20:13.430Z,15.90
2022-10-26T05:26:16.030Z,16.50
2022-10-26T05:32:17.906Z,16.90
2022-10-26T05:38:20.687Z,17.10
2022-10-26T05:44:23.034Z,17.20
2022-10-26T05:50:25.282Z,17.40
2022-10-26T05:56:39.025Z,17.50
2022-10-26T06:03:13.150Z,17.80
2022-10-26T06:09:15.841Z,18.10
2022-10-26T06:15:21.445Z,18.40
2022-10-26T06:22:03.506Z,18.70
2022-10-26T06:28:33.520Z,18.70
2022-10-26T06:34:38.813Z,19.00
2022-10-26T06:40:45.234Z,22.30
2022-10-26T06:47:10.037Z,20.70
2022-10-26T06:53:19.370Z,23.10
2022-10-26T06:59:29.380Z,21.20
2022-10-26T07:05:31.808Z,20.40
2022-10-26T07:11:33.890Z,20.40
2022-10-26T07:17:49.804Z,25.10
2022-10-26T07:23:52.969Z,26.40
2022-10-26T07:29:55.414Z,25.00
2022-10-26T07:35:59.771Z,25.60
2022-10-26T07:42:01.871Z,25.10
2022-10-26T07:48:04.271Z,25.20
2022-10-26T07:54:06.504Z,23.50
2022-10-26T08:00:09.889Z,24.10
2022-10-26T08:06:12.482Z,27.90
2022-10-26T08:12:17.022Z,25.80
2022-10-26T08:18:19.137Z,24.00
2022-10-26T08:24:21.161Z,23.00
2022-10-26T08:30:23.179Z,22.40
2022-10-26T08:36:26.986Z,22.10
2022-10-26T08:42:34.175Z,21.90
2022-10-26T08:48:39.847Z,21.80
2022-10-26T08:54:53.670Z,22.00
2022-10-26T09:00:55.691Z,21.80
2022-10-26T09:07:09.238Z,21.90
2022-10-26T09:13:36.943Z,21.90
2022-10-26T09:20:02.951Z,22.00
2022-10-26T09:26:10.553Z,21.70
2022-10-26T09:32:26.298Z,22.40
2022-10-26T09:38:40.506Z,22.60
2022-10-26T09:44:50.902Z,22.20
2022-10-26T09:50:53.181Z,22.30
2022-10-26T09:56:59.747Z,22.40
2022-10-26T10:03:02.099Z,22.60
2022-10-26T10:09:16.397Z,22.70
2022-10-26T10:15:24.357Z,23.20
2022-10-26T10:21:44.478Z,23.40
2022-10-26T10:27:54.729Z,23.30
2022-10-26T10:33:57.193Z,23.40
2022-10-26T10:40:31.596Z,23.50
2022-10-26T10:46:34.162Z,23.40
2022-10-26T10:52:36.620Z,24.10
2022-10-26T10:58:50.402Z,24.40
2022-10-26T11:05:24.782Z,24.80
2022-10-26T11:11:36.219Z,24.90
2022-10-26T11:17:58.418Z,25.40
2022-10-26T11:24:17.911Z,28.90
2022-10-26T11:30:27.963Z,32.70
2022-10-26T11:36:33.521Z,33.10
2022-10-26T11:42:35.431Z,34.40
2022-10-26T11:48:59.163Z,34.50
2022-10-26T11:55:03.099Z,29.70
2022-10-26T12:01:10.987Z,26.30
2022-10-26T12:07:30.514Z,25.10
2022-10-26T12:13:42.752Z,25.70
2022-10-26T12:20:00.024Z,24.30
2022-10-26T12:26:24.083Z,23.70
2022-10-26T12:32:37.257Z,23.50
2022-10-26T12:38:41.067Z,23.20
2022-10-26T12:44:43.682Z,23.10
2022-10-26T12:50:45.857Z,22.80
2022-10-26T12:57:09.116Z,22.70
2022-10-26T13:03:31.726Z,22.70
2022-10-26T13:09:33.836Z,22.60
2022-10-26T13:15:38.580Z,22.50
2022-10-26T13:21:47.804Z,22.30
2022-10-26T13:28:02.058Z,22.30
2022-10-26T13:34:25.707Z,22.10
2022-10-26T13:40:29.873Z,22.00
2022-10-26T13:46:36.274Z,21.90
2022-10-26T13:52:48.374Z,21.90
2022-10-26T13:59:06.346Z,21.80
2022-10-26T14:05:12.656Z,21.70
2022-10-26T14:11:21.871Z,21.60
2022-10-26T14:17:26.170Z,21.50
2022-10-26T14:23:46.331Z,21.30
2022-10-26T14:30:16.778Z,21.20
2022-10-26T14:36:11.284Z,21.10
2022-10-26T14:42:28.636Z,20.90
2022-10-26T14:48:33.899Z,20.70
2022-10-26T14:54:36.007Z,20.70
2022-10-26T15:00:38.101Z,20.50
2022-10-26T15:06:43.167Z,20.30
2022-10-26T15:12:45.247Z,20.10
2022-10-26T15:18:51.622Z,19.80
2022-10-26T15:24:56.457Z,19.60
2022-10-26T15:31:12.257Z,19.30
2022-10-26T15:37:14.411Z,19.10
2022-10-26T15:43:16.387Z,18.80
2022-10-26T15:49:20.575Z,18.60
2022-10-26T15:55:22.742Z,18.40
2022-10-26T16:01:29.492Z,18.20
2022-10-26T16:07:31.737Z,18.10
2022-10-26T16:13:33.955Z,18.00
2022-10-26T16:19:36.270Z,17.90
2022-10-26T16:25:44.828Z,17.70
2022-10-26T16:31:47.508Z,17.60
2022-10-26T16:37:49.739Z,17.50
2022-10-26T16:43:51.885Z,17.40
2022-10-26T16:49:54.299Z,17.30
2022-10-26T16:56:02.547Z,17.20
2022-10-26T17:02:05.192Z,17.20
2022-10-26T17:08:07.779Z,17.10
2022-10-26T17:14:09.929Z,17.10
2022-10-26T17:20:12.356Z,17.10
2022-10-26T17:26:14.870Z,17.20
2022-10-26T17:32:17.097Z,17.30
2022-10-26T17:38:19.298Z,17.30
2022-10-26T17:44:21.466Z,17.40
2022-10-26T17:50:23.562Z,17.50
2022-10-26T17:56:28.283Z,17.70
2022-10-26T18:02:31.610Z,17.80
2022-10-26T18:08:35.007Z,17.90
2022-10-26T18:14:37.228Z,17.90
2022-10-26T18:20:39.444Z,17.90
2022-10-26T18:26:42.557Z,17.90
2022-10-26T18:32:44.607Z,17.80
2022-10-26T18:38:47.976Z,17.60
2022-10-26T18:44:50.062Z,17.50
2022-10-26T18:50:52.372Z,17.40
2022-10-26T18:56:54.775Z,17.40
2022-10-26T19:02:57.106Z,17.40
2022-10-26T19:08:59.956Z,17.30
2022-10-26T19:15:02.041Z,17.30
2022-10-26T19:21:07.395Z,17.40
2022-10-26T19:27:09.716Z,17.40
2022-10-26T19:33:12.066Z,17.30
2022-10-26T19:39:17.892Z,17.20
2022-10-26T19:45:20.004Z,17.20
2022-10-26T19:51:23.245Z,17.20
2022-10-26T19:57:25.229Z,17.20
2022-10-26T20:03:29.327Z,17.20
2022-10-26T20:09:32.726Z,17.30
2022-10-26T20:15:35.216Z,17.30
2022-10-26T20:21:38.367Z,17.30
2022-10-26T20:27:42.266Z,17.20
2022-10-26T20:33:44.766Z,17.10
2022-10-26T20:39:47.237Z,17.00
2022-10-26T20:45:49.603Z,16.80
2022-10-26T20:52:18.960Z,16.60
2022-10-26T20:58:38.926Z,16.50
2022-10-26T21:04:41.122Z,16.40
2022-10-26T21:10:43.348Z,16.40
2022-10-26T21:16:45.437Z,16.30
2022-10-26T21:22:48.006Z,16.30
2022-10-26T21:28:50.095Z,16.50
2022-10-26T21:34:52.098Z,16.50
2022-10-26T21:41:11.543Z,16.40
2022-10-26T21:47:14.066Z,16.30
2022-10-26T21:53:16.623Z,16.20
2022-10-26T21:59:18.795Z,16.10
2022-10-26T22:05:20.961Z,16.00
2022-10-26T22:11:25.010Z,15.90
2022-10-26T22:17:27.316Z,15.70
2022-10-26T22:23:29.600Z,15.50
2022-10-26T22:29:31.818Z,15.40
2022-10-26T22:35:33.986Z,15.20
2022-10-26T22:41:36.003Z,15.10
2022-10-26T22:47:37.954Z,15.00
2022-10-26T22:53:39.987Z,15.00
2022-10-26T22:59:41.952Z,14.90
2022-10-26T23:05:48.243Z,14.80
2022-10-26T23:11:50.299Z,14.80
2022-10-26T23:17:54.038Z,14.70
2022-10-26T23:23:56.674Z,14.60
2022-10-26T23:29:58.591Z,14.70
2022-10-26T23:36:01.815Z,14.60
2022-10-26T23:42:03.863Z,14.50
2022-10-26T23:48:06.100Z,14.50
2022-10-26T23:54:08.238Z,14.40
